History for Boise, ID


Lat: N 43 ° 36 ' 50 '' ( 43.614 ° )
Lon: W 116 ° 12 ' 14 '' ( -116.204 ° )

Elevation: 2847 ft
Data type:
Distance calculator

 
 

Select another date:

« Previous Day   |   Next Day »

Daily Statistics
  Current High Low Average
Temperature - 63.0 °F 50.0 °F 56.5 °F
Dew Point - 38.0 °F 31.0 °F 33.6 °F
Humidity % 56% 30% 44%
Wind Speed - 1.0mph - 0.1mph
Wind Gust - 5.0mph - -
Wind - - ESE
Pressure - 26.97in - -
Precipitation 0.00in      

Tabular Data for March 31, 2015
Time Temperature Dew Point Pressure Wind Wind Speed Wind Gust Humidity Hourly Precipitation
00:01 58.0 °F 34.0 °F 26.97in ESE 0.0mph 5.0mph 41% -99.99in
00:32 58.0 °F 34.0 °F 26.97in ESE 0.0mph 5.0mph 41% -99.99in
00:41 58.0 °F 34.0 °F 26.97in ESE 0.0mph 5.0mph 41% -99.99in
00:51 58.0 °F 34.0 °F 26.97in ESE 0.0mph 5.0mph 41% -99.99in
01:00 62.0 °F 33.0 °F 26.94in East 0.0mph 3.0mph 33% -99.99in
01:21 62.0 °F 33.0 °F 26.94in East 0.0mph 3.0mph 33% -99.99in
01:31 62.0 °F 33.0 °F 26.94in East 0.0mph 3.0mph 33% -99.99in
01:41 62.0 °F 33.0 °F 26.94in East 0.0mph 3.0mph 33% -99.99in
01:51 62.0 °F 33.0 °F 26.94in East 0.0mph 3.0mph 33% -99.99in
02:00 63.0 °F 31.0 °F 26.91in ESE 0.0mph 0.0mph 30% -99.99in
02:21 63.0 °F 31.0 °F 26.91in ESE 0.0mph 0.0mph 30% -99.99in
02:31 63.0 °F 31.0 °F 26.91in ESE 0.0mph 0.0mph 30% -99.99in
02:41 63.0 °F 31.0 °F 26.91in ESE 0.0mph 0.0mph 30% -99.99in
02:51 63.0 °F 31.0 °F 26.91in ESE 0.0mph 0.0mph 30% -99.99in
03:00 60.0 °F 32.0 °F 26.90in SSW 0.0mph 0.0mph 35% -99.99in
03:21 60.0 °F 32.0 °F 26.90in SSW 0.0mph 0.0mph 35% -99.99in
03:31 60.0 °F 32.0 °F 26.90in SSW 0.0mph 0.0mph 35% -99.99in
03:41 60.0 °F 32.0 °F 26.90in SSW 0.0mph 0.0mph 35% -99.99in
03:51 60.0 °F 32.0 °F 26.90in SSW 0.0mph 0.0mph 35% -99.99in
04:00 56.0 °F 32.0 °F 26.92in South 0.0mph 0.0mph 40% -99.99in
04:21 56.0 °F 32.0 °F 26.92in South 0.0mph 0.0mph 40% -99.99in
04:31 56.0 °F 32.0 °F 26.92in South 0.0mph 0.0mph 40% -99.99in
04:41 56.0 °F 32.0 °F 26.92in South 0.0mph 0.0mph 40% -99.99in
04:51 56.0 °F 32.0 °F 26.92in South 0.0mph 0.0mph 40% -99.99in
05:00 53.0 °F 34.0 °F 26.92in SE 0.0mph 2.0mph 48% -99.99in
05:22 53.0 °F 34.0 °F 26.92in SE 0.0mph 2.0mph 48% -99.99in
05:32 53.0 °F 34.0 °F 26.92in SE 0.0mph 2.0mph 48% -99.99in
05:42 53.0 °F 34.0 °F 26.92in SE 0.0mph 2.0mph 48% -99.99in
05:52 53.0 °F 34.0 °F 26.92in SE 0.0mph 2.0mph 48% -99.99in
06:00 50.0 °F 34.0 °F 26.91in ESE 0.0mph 0.0mph 55% -99.99in
06:22 50.0 °F 34.0 °F 26.91in ESE 0.0mph 0.0mph 55% -99.99in
06:32 50.0 °F 34.0 °F 26.91in ESE 0.0mph 0.0mph 55% -99.99in
06:42 50.0 °F 34.0 °F 26.91in ESE 0.0mph 0.0mph 55% -99.99in
06:51 50.0 °F 34.0 °F 26.91in ESE 0.0mph 0.0mph 55% -99.99in
07:00 51.0 °F 35.0 °F 26.91in East 0.0mph 5.0mph 54% -99.99in
07:21 51.0 °F 35.0 °F 26.91in East 0.0mph 5.0mph 54% -99.99in
07:31 51.0 °F 35.0 °F 26.91in East 0.0mph 5.0mph 54% -99.99in
07:41 51.0 °F 35.0 °F 26.91in East 0.0mph 5.0mph 54% -99.99in
07:51 51.0 °F 35.0 °F 26.91in East 0.0mph 5.0mph 54% -99.99in
09:00 50.0 °F 35.0 °F 26.93in ESE 1.0mph 4.0mph 56% -99.99in
09:21 50.0 °F 35.0 °F 26.93in ESE 1.0mph 4.0mph 56% -99.99in
09:31 50.0 °F 35.0 °F 26.93in ESE 1.0mph 4.0mph 56% -99.99in
09:42 50.0 °F 35.0 °F 26.93in ESE 1.0mph 4.0mph 56% -99.99in
09:51 50.0 °F 35.0 °F 26.93in ESE 1.0mph 4.0mph 56% -99.99in
10:21 56.0 °F 38.0 °F 26.93in ESE 0.0mph 4.0mph 51% -99.99in
10:31 56.0 °F 38.0 °F 26.93in ESE 0.0mph 4.0mph 51% -99.99in
10:42 56.0 °F 38.0 °F 26.93in ESE 0.0mph 4.0mph 51% -99.99in

Powered by the Weather Underground, Inc.